createdAt,value
2019-02-22T00:02:03.475Z,65.08
2019-02-22T00:04:31.700Z,64.97
2019-02-22T00:06:59.907Z,67.45
2019-02-22T00:09:28.119Z,63.20
2019-02-22T00:11:56.327Z,65.57
2019-02-22T00:14:24.549Z,65.20
2019-02-22T00:16:52.768Z,66.12
2019-02-22T00:19:20.979Z,67.97
2019-02-22T00:21:49.178Z,64.37
2019-02-22T00:24:17.414Z,59.42
2019-02-22T00:26:45.642Z,61.40
2019-02-22T00:29:13.860Z,62.35
2019-02-22T00:31:42.075Z,59.63
2019-02-22T00:34:10.350Z,60.10
2019-02-22T00:36:38.606Z,57.93
2019-02-22T00:39:06.900Z,54.83
2019-02-22T00:41:35.108Z,57.53
2019-02-22T00:44:03.540Z,60.90
2019-02-22T00:46:31.739Z,53.70
2019-02-22T00:48:59.942Z,55.48
2019-02-22T00:51:28.171Z,55.52
2019-02-22T00:53:56.374Z,54.38
2019-02-22T00:56:24.600Z,55.40
2019-02-22T00:58:52.799Z,52.90
2019-02-22T01:01:21.014Z,53.33
2019-02-22T01:03:49.236Z,52.17
2019-02-22T01:06:17.450Z,51.18
2019-02-22T01:08:45.659Z,52.23
2019-02-22T01:11:13.873Z,50.80
2019-02-22T01:13:42.070Z,57.27
2019-02-22T01:16:10.282Z,51.90
2019-02-22T01:18:38.507Z,53.28
2019-02-22T01:21:06.715Z,51.02
2019-02-22T01:23:34.936Z,52.90
2019-02-22T01:26:03.143Z,51.08
2019-02-22T01:28:31.355Z,49.50
2019-02-22T01:30:59.576Z,50.10
2019-02-22T01:33:27.798Z,49.83
2019-02-22T01:35:56.011Z,50.43
2019-02-22T01:38:24.207Z,51.75
2019-02-22T01:40:52.422Z,50.90
2019-02-22T01:43:20.639Z,49.67
2019-02-22T01:45:48.859Z,53.80
2019-02-22T01:48:17.055Z,52.93
2019-02-22T01:50:45.300Z,49.03
2019-02-22T01:53:14.579Z,52.27
2019-02-22T01:55:42.806Z,53.45
2019-02-22T01:58:11.015Z,54.85
2019-02-22T02:00:39.299Z,54.67
2019-02-22T02:03:07.515Z,53.73
2019-02-22T02:05:35.723Z,54.63
2019-02-22T02:08:04.019Z,56.77
2019-02-22T02:10:32.243Z,53.48
2019-02-22T02:13:00.457Z,58.45
2019-02-22T02:15:28.654Z,58.23
2019-02-22T02:17:56.873Z,57.45
2019-02-22T02:20:25.113Z,54.67
2019-02-22T02:22:53.391Z,57.53
2019-02-22T02:25:21.608Z,56.50
2019-02-22T02:27:49.822Z,57.62
2019-02-22T02:30:18.032Z,58.05
2019-02-22T02:32:46.264Z,58.70
2019-02-22T02:35:14.463Z,58.20
2019-02-22T02:37:42.670Z,55.50
2019-02-22T02:40:10.875Z,55.67
2019-02-22T02:42:39.103Z,56.13
2019-02-22T02:45:07.388Z,56.83
2019-02-22T02:47:35.599Z,57.78
2019-02-22T02:50:03.926Z,61.13
2019-02-22T02:52:32.204Z,60.10
2019-02-22T02:55:00.484Z,59.38
2019-02-22T02:57:28.700Z,58.52
2019-02-22T02:59:56.895Z,58.65
2019-02-22T03:02:29.605Z,61.77
2019-02-22T03:04:57.812Z,66.45
2019-02-22T03:07:42.469Z,60.67
2019-02-22T03:10:11.742Z,61.68
2019-02-22T03:12:39.962Z,62.98
2019-02-22T03:15:09.039Z,62.90
2019-02-22T03:17:37.254Z,60.98
2019-02-22T03:20:06.073Z,62.35
2019-02-22T03:22:34.295Z,65.90
2019-02-22T03:25:02.515Z,64.55
2019-02-22T03:27:31.699Z,63.42
2019-02-22T03:29:59.912Z,61.70
2019-02-22T03:32:28.129Z,63.70
2019-02-22T03:34:56.324Z,65.62
2019-02-22T03:37:24.542Z,68.00
2019-02-22T03:39:52.751Z,62.70
2019-02-22T03:42:20.971Z,66.70
2019-02-22T03:44:49.184Z,68.17
2019-02-22T03:47:17.464Z,76.63
2019-02-22T03:49:45.663Z,65.00
2019-02-22T03:52:25.031Z,70.65
2019-02-22T03:54:53.280Z,72.75
2019-02-22T03:57:21.563Z,67.87
2019-02-22T03:59:51.295Z,71.62
2019-02-22T04:02:19.654Z,74.25
2019-02-22T04:04:47.871Z,78.87
2019-02-22T04:07:16.091Z,70.95
2019-02-22T04:09:44.303Z,77.20
2019-02-22T04:12:12.508Z,74.10
2019-02-22T04:14:40.719Z,74.17
2019-02-22T04:17:11.418Z,81.45
2019-02-22T04:19:38.839Z,80.42
2019-02-22T04:22:07.067Z,70.93
2019-02-22T04:24:35.364Z,75.47
2019-02-22T04:27:03.653Z,81.55
2019-02-22T04:29:31.874Z,82.20
2019-02-22T04:32:01.165Z,77.62
2019-02-22T04:34:29.496Z,74.67
2019-02-22T04:36:57.697Z,82.23
2019-02-22T04:39:26.873Z,81.33
2019-02-22T04:41:58.320Z,79.92
2019-02-22T04:44:24.999Z,90.60
2019-02-22T04:46:53.219Z,85.50
2019-02-22T04:49:21.460Z,87.30
2019-02-22T04:51:49.682Z,88.07
2019-02-22T04:54:17.907Z,81.50
2019-02-22T04:56:46.127Z,82.97
2019-02-22T04:59:14.344Z,86.97
2019-02-22T05:01:42.571Z,94.13
2019-02-22T05:04:10.784Z,90.92
2019-02-22T05:06:38.986Z,96.07
2019-02-22T05:09:08.289Z,92.60
2019-02-22T05:11:36.518Z,92.27
2019-02-22T05:14:04.736Z,98.45
2019-02-22T05:16:32.963Z,97.37
2019-02-22T05:19:01.182Z,91.55
2019-02-22T05:21:29.398Z,93.50
2019-02-22T05:23:57.631Z,99.07
2019-02-22T05:26:26.203Z,97.42
2019-02-22T05:28:54.437Z,98.93
2019-02-22T05:31:22.649Z,108.90
2019-02-22T05:33:50.877Z,107.45
2019-02-22T05:36:19.102Z,103.13
2019-02-22T05:38:47.310Z,105.23
2019-02-22T05:41:15.535Z,100.50
2019-02-22T05:43:43.747Z,111.43
2019-02-22T05:46:11.966Z,112.77
2019-02-22T05:48:40.175Z,102.35
2019-02-22T05:51:08.401Z,107.90
2019-02-22T05:53:36.619Z,113.30
2019-02-22T05:56:04.849Z,117.50
2019-02-22T05:58:33.061Z,123.07
2019-02-22T06:01:01.295Z,118.25
2019-02-22T06:03:29.507Z,127.93
2019-02-22T06:05:57.728Z,118.47
2019-02-22T06:08:25.950Z,123.60
2019-02-22T06:10:54.240Z,115.67
2019-02-22T06:13:22.456Z,116.65
2019-02-22T06:15:50.687Z,123.02
2019-02-22T06:18:18.899Z,120.13
2019-02-22T06:20:47.139Z,116.23
2019-02-22T06:23:15.439Z,127.60
2019-02-22T06:25:43.680Z,122.20
2019-02-22T06:28:11.895Z,119.28
2019-02-22T06:30:40.128Z,131.03
2019-02-22T06:33:08.343Z,128.90
2019-02-22T06:35:36.568Z,129.43
2019-02-22T06:38:04.856Z,123.07
2019-02-22T06:40:33.159Z,126.18
2019-02-22T06:43:01.383Z,117.87
2019-02-22T06:45:29.606Z,131.22
2019-02-22T06:47:57.842Z,124.40
2019-02-22T06:52:55.987Z,124.58
2019-02-22T06:55:24.211Z,134.33
2019-02-22T06:57:52.426Z,129.17
2019-02-22T07:00:20.660Z,119.90
2019-02-22T07:02:48.875Z,130.50
2019-02-22T07:05:17.095Z,118.07
2019-02-22T07:07:45.320Z,128.15
2019-02-22T07:10:13.543Z,121.70
2019-02-22T07:12:56.541Z,134.18
2019-02-22T07:15:18.275Z,122.33
2019-02-22T07:17:46.497Z,125.67
2019-02-22T07:20:14.714Z,134.57
2019-02-22T07:22:42.928Z,130.85
2019-02-22T07:25:11.237Z,138.25
2019-02-22T07:27:39.460Z,129.95
2019-02-22T07:30:09.183Z,130.27
2019-02-22T07:32:37.399Z,146.50
2019-02-22T07:35:05.867Z,149.75
2019-02-22T07:37:34.104Z,160.93
2019-02-22T07:40:02.315Z,167.70
2019-02-22T07:42:30.608Z,180.00
2019-02-22T07:44:58.819Z,165.32
2019-02-22T07:47:29.243Z,189.75
2019-02-22T07:49:56.943Z,176.40
2019-02-22T07:52:25.171Z,186.25
2019-02-22T07:54:53.383Z,175.80
2019-02-22T07:57:21.598Z,170.87
2019-02-22T07:59:49.816Z,167.50
2019-02-22T08:02:18.052Z,161.83
2019-02-22T08:04:46.263Z,147.07
2019-02-22T08:07:14.487Z,140.47
2019-02-22T08:09:42.700Z,124.20
2019-02-22T08:12:10.923Z,106.72
2019-02-22T08:14:39.134Z,98.10
2019-02-22T08:17:07.352Z,97.10
2019-02-22T08:19:36.523Z,98.12
2019-02-22T08:22:04.760Z,85.30
2019-02-22T08:24:32.975Z,98.47
2019-02-22T08:27:01.187Z,92.67
2019-02-22T08:29:29.428Z,88.00
2019-02-22T08:31:57.636Z,101.60
2019-02-22T08:34:25.842Z,99.77
2019-02-22T08:36:54.067Z,100.45
2019-02-22T08:39:22.284Z,97.83
2019-02-22T08:41:50.491Z,90.47
2019-02-22T08:44:18.731Z,94.42
2019-02-22T08:46:47.041Z,87.20
2019-02-22T08:49:15.207Z,95.42
2019-02-22T08:51:43.439Z,84.13
2019-02-22T08:54:11.642Z,96.97
2019-02-22T08:56:39.864Z,96.95
2019-02-22T08:59:08.083Z,99.25
2019-02-22T09:01:37.281Z,98.53
2019-02-22T09:04:05.495Z,90.03
2019-02-22T09:06:33.716Z,99.90
2019-02-22T09:09:01.927Z,88.00
2019-02-22T09:11:31.791Z,90.12
2019-02-22T09:14:00.008Z,80.55
2019-02-22T09:16:28.211Z,91.97
2019-02-22T09:18:56.462Z,84.85
2019-02-22T09:21:24.731Z,83.30
2019-02-22T09:23:52.942Z,85.67
2019-02-22T09:26:21.231Z,81.17
2019-02-22T09:28:49.470Z,74.30
2019-02-22T09:31:17.695Z,77.82
2019-02-22T09:33:45.926Z,88.67
2019-02-22T09:36:14.150Z,80.05
2019-02-22T09:38:42.352Z,69.42
2019-02-22T09:41:10.580Z,67.25
2019-02-22T09:43:38.808Z,73.90
2019-02-22T09:46:07.015Z,68.42
2019-02-22T09:48:35.545Z,76.05
2019-02-22T09:51:03.756Z,67.97
2019-02-22T09:53:31.995Z,65.10
2019-02-22T09:56:00.286Z,63.38
2019-02-22T09:58:28.508Z,57.75
2019-02-22T10:00:56.812Z,60.75
2019-02-22T10:03:25.008Z,62.90
2019-02-22T10:05:53.234Z,56.30
2019-02-22T10:08:21.451Z,45.83
2019-02-22T10:10:49.651Z,59.35
2019-02-22T10:13:17.859Z,52.58
2019-02-22T10:15:46.068Z,59.23
2019-02-22T10:18:14.288Z,54.33
2019-02-22T10:20:42.495Z,52.33
2019-02-22T10:23:10.710Z,57.78
2019-02-22T10:25:38.932Z,52.35
2019-02-22T10:28:17.297Z,59.10
2019-02-22T10:30:37.061Z,54.65
2019-02-22T10:33:05.274Z,52.77
2019-02-22T10:35:33.484Z,49.33
2019-02-22T10:38:01.781Z,50.12
2019-02-22T10:40:29.991Z,47.05
2019-02-22T10:42:58.206Z,52.13
2019-02-22T10:45:26.424Z,46.18
2019-02-22T10:47:54.646Z,48.17
2019-02-22T10:50:23.031Z,47.55
2019-02-22T10:53:01.430Z,57.85
2019-02-22T10:55:21.977Z,50.60
2019-02-22T10:57:50.200Z,47.43
2019-02-22T11:00:18.492Z,47.07
2019-02-22T11:02:46.699Z,43.25
2019-02-22T11:05:14.914Z,43.17
2019-02-22T11:07:43.127Z,44.15
2019-02-22T11:10:11.439Z,35.98
2019-02-22T11:12:40.615Z,40.92
2019-02-22T11:15:08.838Z,31.02
2019-02-22T11:17:38.133Z,36.95
2019-02-22T11:20:06.665Z,28.15
2019-02-22T11:22:34.863Z,24.52
2019-02-22T11:25:03.090Z,27.37
2019-02-22T11:27:31.303Z,23.10
2019-02-22T11:29:59.542Z,28.52
2019-02-22T11:32:27.760Z,22.45
2019-02-22T11:34:55.978Z,25.77
2019-02-22T11:37:24.184Z,25.95
2019-02-22T11:39:52.412Z,23.92
2019-02-22T11:42:20.636Z,22.30
2019-02-22T11:44:48.847Z,26.73
2019-02-22T11:47:17.064Z,23.87
2019-02-22T11:49:45.302Z,22.00
2019-02-22T11:52:13.500Z,24.82
2019-02-22T11:54:41.724Z,23.27
2019-02-22T11:57:10.302Z,24.45
2019-02-22T11:59:38.526Z,22.58
2019-02-22T12:02:06.735Z,23.20
2019-02-22T12:04:34.951Z,21.52
2019-02-22T12:07:03.182Z,22.70
2019-02-22T12:09:31.399Z,23.45
2019-02-22T12:11:59.615Z,21.68
2019-02-22T12:14:27.835Z,18.02
2019-02-22T12:16:56.039Z,17.85
2019-02-22T12:19:24.255Z,19.95
2019-02-22T12:21:52.527Z,18.12
2019-02-22T12:24:20.766Z,14.50
2019-02-22T12:26:48.983Z,18.85
2019-02-22T12:29:17.199Z,13.40
2019-02-22T12:31:45.415Z,15.20
2019-02-22T12:34:13.650Z,15.78
2019-02-22T12:36:42.815Z,12.60
2019-02-22T12:39:11.019Z,12.00
2019-02-22T12:41:40.904Z,8.18
2019-02-22T12:44:09.107Z,11.22
2019-02-22T12:46:37.328Z,8.43
2019-02-22T12:49:06.596Z,8.67
2019-02-22T12:51:34.812Z,8.93
2019-02-22T12:54:03.011Z,8.00
2019-02-22T12:56:56.135Z,11.85
2019-02-22T12:59:01.124Z,7.70
2019-02-22T13:01:30.313Z,7.60
2019-02-22T13:03:58.511Z,8.80
2019-02-22T13:06:26.743Z,8.77
2019-02-22T13:08:54.931Z,8.83
2019-02-22T13:11:23.143Z,9.60
2019-02-22T13:13:51.342Z,8.10
2019-02-22T13:16:20.236Z,12.15
2019-02-22T13:18:48.443Z,15.50
2019-02-22T13:21:16.659Z,11.15
2019-02-22T13:23:44.875Z,9.33
2019-02-22T13:26:13.092Z,10.35
2019-02-22T13:28:41.287Z,9.65
2019-02-22T13:31:09.495Z,12.43
2019-02-22T13:33:37.727Z,13.65
2019-02-22T13:36:05.983Z,12.93
2019-02-22T13:38:34.167Z,10.40
2019-02-22T13:41:02.379Z,9.60
2019-02-22T13:43:30.574Z,9.40
2019-02-22T13:45:58.786Z,12.03
2019-02-22T13:48:27.008Z,9.47
2019-02-22T13:50:55.227Z,10.60
2019-02-22T13:53:23.423Z,11.47
2019-02-22T13:55:51.635Z,13.00
2019-02-22T13:58:19.915Z,10.53
2019-02-22T14:00:48.115Z,10.20
2019-02-22T14:03:16.321Z,9.10
2019-02-22T14:05:44.531Z,9.68
2019-02-22T14:08:12.749Z,10.47
2019-02-22T14:10:40.951Z,9.70
2019-02-22T14:13:09.156Z,10.48
2019-02-22T14:15:38.395Z,11.13
2019-02-22T14:18:06.875Z,11.23
2019-02-22T14:20:35.079Z,12.83
2019-02-22T14:23:03.825Z,10.50
2019-02-22T14:25:32.139Z,9.47
2019-02-22T14:28:00.361Z,10.80
2019-02-22T14:30:28.567Z,9.08
2019-02-22T14:32:56.767Z,11.30
2019-02-22T14:35:24.979Z,9.80
2019-02-22T14:37:53.245Z,12.50
2019-02-22T14:40:21.525Z,9.47
2019-02-22T14:42:49.768Z,10.00
2019-02-22T14:45:18.035Z,11.38
2019-02-22T14:47:46.284Z,14.53
2019-02-22T14:50:15.144Z,11.63
2019-02-22T14:52:43.366Z,9.60
2019-02-22T14:55:11.561Z,11.50
2019-02-22T14:57:39.855Z,9.05
2019-02-22T15:00:10.012Z,8.63
2019-02-22T15:02:38.701Z,10.60
2019-02-22T15:05:09.164Z,10.10
2019-02-22T15:07:37.526Z,10.90
2019-02-22T15:10:05.747Z,12.10
2019-02-22T15:12:33.954Z,9.38
2019-02-22T15:15:02.159Z,15.83
2019-02-22T15:17:37.459Z,14.47
2019-02-22T15:20:06.555Z,13.08
2019-02-22T15:22:34.780Z,14.55
2019-02-22T15:25:03.079Z,17.53
2019-02-22T15:27:31.291Z,15.50
2019-02-22T15:29:59.506Z,14.28
2019-02-22T15:32:27.724Z,18.80
2019-02-22T15:34:55.939Z,18.87
2019-02-22T15:37:24.182Z,16.30
2019-02-22T15:39:52.478Z,19.17
2019-02-22T15:42:21.684Z,19.07
2019-02-22T15:44:49.895Z,20.17
2019-02-22T15:47:18.159Z,21.83
2019-02-22T15:49:48.562Z,58.35
2019-02-22T15:52:16.330Z,100.03
2019-02-22T15:54:44.558Z,150.95
2019-02-22T15:57:12.775Z,38.57
2019-02-22T15:59:40.987Z,44.70
2019-02-22T16:02:09.200Z,27.03
2019-02-22T16:04:45.289Z,31.23
2019-02-22T16:07:13.723Z,34.53
2019-02-22T16:09:41.944Z,42.03
2019-02-22T16:12:10.239Z,35.80
2019-02-22T16:14:38.474Z,36.80
2019-02-22T16:17:06.695Z,36.47
2019-02-22T16:19:35.654Z,39.65
2019-02-22T16:22:03.871Z,36.25
2019-02-22T16:24:32.112Z,33.10
2019-02-22T16:27:03.540Z,31.77
2019-02-22T16:29:32.272Z,36.43
2019-02-22T16:32:00.639Z,31.80
2019-02-22T16:34:28.903Z,35.80
2019-02-22T16:36:57.118Z,38.63
2019-02-22T16:39:25.340Z,35.78
2019-02-22T16:41:53.609Z,36.83
2019-02-22T16:44:21.824Z,30.43
2019-02-22T16:46:50.051Z,36.40
2019-02-22T16:49:19.355Z,29.40
2019-02-22T16:51:47.563Z,25.00
2019-02-22T16:54:15.787Z,25.33
2019-02-22T16:56:44.094Z,21.75
2019-02-22T16:59:15.046Z,26.07
2019-02-22T17:01:42.400Z,22.17
2019-02-22T17:04:10.618Z,25.90
2019-02-22T17:06:38.908Z,27.55
2019-02-22T17:09:07.204Z,29.95
2019-02-22T17:11:37.006Z,28.80
2019-02-22T17:14:05.236Z,30.37
2019-02-22T17:16:33.446Z,31.37
2019-02-22T17:19:01.665Z,33.45
2019-02-22T17:21:29.914Z,37.80
2019-02-22T17:23:58.195Z,40.70
2019-02-22T17:26:26.482Z,36.73
2019-02-22T17:28:54.758Z,44.60
2019-02-22T17:31:23.033Z,41.10
2019-02-22T17:33:51.262Z,31.57
2019-02-22T17:36:26.674Z,27.05
2019-02-22T17:38:49.527Z,29.07
2019-02-22T17:41:17.737Z,31.23
2019-02-22T17:43:46.046Z,26.77
2019-02-22T17:46:14.335Z,27.63
2019-02-22T17:48:42.587Z,28.40
2019-02-22T17:51:10.816Z,27.25
2019-02-22T17:53:39.030Z,27.98
2019-02-22T17:56:07.253Z,27.40
2019-02-22T17:58:35.527Z,26.10
2019-02-22T18:01:03.815Z,27.93
2019-02-22T18:03:33.103Z,24.40
2019-02-22T18:06:01.328Z,34.60
2019-02-22T18:08:29.531Z,25.20
2019-02-22T18:10:58.310Z,26.00
2019-02-22T18:13:26.527Z,25.80
2019-02-22T18:15:54.767Z,27.90
2019-02-22T18:18:22.989Z,24.60
2019-02-22T18:20:51.207Z,27.05
2019-02-22T18:23:20.386Z,29.00
2019-02-22T18:25:48.614Z,27.15
2019-02-22T18:28:16.843Z,28.80
2019-02-22T18:30:45.060Z,27.93
2019-02-22T18:33:13.269Z,30.87
2019-02-22T18:35:41.491Z,30.55
2019-02-22T18:38:09.707Z,28.83
2019-02-22T18:40:37.933Z,31.50
2019-02-22T18:43:06.147Z,30.57
2019-02-22T18:45:34.371Z,28.65
2019-02-22T18:48:02.592Z,30.77
2019-02-22T18:50:30.807Z,29.72
2019-02-22T18:52:59.032Z,33.23
2019-02-22T18:55:27.251Z,36.43
2019-02-22T18:57:55.456Z,39.83
2019-02-22T19:00:23.695Z,39.00
2019-02-22T19:02:51.908Z,43.05
2019-02-22T19:05:20.127Z,44.40
2019-02-22T19:07:48.375Z,41.88
2019-02-22T19:10:16.676Z,45.80
2019-02-22T19:12:44.899Z,48.80
2019-02-22T19:15:12.783Z,50.07
2019-02-22T19:17:41.000Z,42.20
2019-02-22T19:20:10.299Z,49.33
2019-02-22T19:22:38.543Z,43.97
2019-02-22T19:25:06.950Z,44.90
2019-02-22T19:27:35.159Z,46.30
2019-02-22T19:30:03.415Z,51.05
2019-02-22T19:32:32.707Z,49.73
2019-02-22T19:35:01.975Z,53.77
2019-02-22T19:37:30.183Z,55.07
2019-02-22T19:39:58.481Z,53.00
2019-02-22T19:42:26.691Z,57.95
2019-02-22T19:44:54.911Z,55.98
2019-02-22T19:47:23.147Z,59.60
2019-02-22T19:49:51.338Z,59.63
2019-02-22T19:52:19.563Z,60.17
2019-02-22T19:54:48.154Z,56.95
2019-02-22T19:57:16.495Z,58.98
2019-02-22T19:59:44.719Z,54.23
2019-02-22T20:02:12.949Z,57.53
2019-02-22T20:04:41.160Z,55.87
2019-02-22T20:07:10.356Z,55.95
2019-02-22T20:09:38.570Z,63.85
2019-02-22T20:12:06.787Z,70.10
2019-02-22T20:14:34.999Z,72.53
2019-02-22T20:17:03.211Z,72.58
2019-02-22T20:19:31.436Z,69.60
2019-02-22T20:21:59.655Z,70.47
2019-02-22T20:24:27.918Z,68.87
2019-02-22T20:26:56.136Z,68.37
2019-02-22T20:29:24.355Z,73.52
2019-02-22T20:31:52.578Z,67.15
2019-02-22T20:34:20.803Z,67.50
2019-02-22T20:36:49.021Z,66.77
2019-02-22T20:39:17.239Z,66.00
2019-02-22T20:41:45.470Z,67.72
2019-02-22T20:44:13.711Z,67.13
2019-02-22T20:46:41.922Z,59.97
2019-02-22T20:49:10.143Z,62.93
2019-02-22T20:51:38.374Z,51.23
2019-02-22T20:54:06.615Z,57.60
2019-02-22T20:56:34.811Z,69.67
2019-02-22T20:59:03.027Z,47.60
2019-02-22T21:01:31.249Z,43.28
2019-02-22T21:03:59.462Z,43.80
2019-02-22T21:06:27.666Z,38.50
2019-02-22T21:08:56.581Z,43.08
2019-02-22T21:11:24.827Z,39.40
2019-02-22T21:13:53.043Z,37.20
2019-02-22T21:16:21.267Z,38.88
2019-02-22T21:18:49.502Z,38.00
2019-02-22T21:21:17.709Z,35.10
2019-02-22T21:23:45.927Z,36.83
2019-02-22T21:26:14.150Z,37.58
2019-02-22T21:28:42.379Z,36.33
2019-02-22T21:31:10.591Z,37.88
2019-02-22T21:33:38.811Z,36.65
2019-02-22T21:36:07.115Z,36.23
2019-02-22T21:38:35.366Z,37.07
2019-02-22T21:41:03.554Z,40.10
2019-02-22T21:43:31.803Z,35.77
2019-02-22T21:46:00.035Z,37.93
2019-02-22T21:48:28.276Z,38.07
2019-02-22T21:50:56.480Z,36.00
2019-02-22T21:53:25.273Z,37.08
2019-02-22T21:55:53.486Z,38.80
2019-02-22T21:58:21.703Z,38.45
2019-02-22T22:00:50.250Z,37.55
2019-02-22T22:03:18.483Z,35.30
2019-02-22T22:05:46.698Z,35.67
2019-02-22T22:08:14.910Z,33.10
2019-02-22T22:10:43.144Z,30.85
2019-02-22T22:13:11.395Z,32.08
2019-02-22T22:15:39.623Z,31.90
2019-02-22T22:18:07.847Z,32.00
2019-02-22T22:20:36.058Z,30.92
2019-02-22T22:23:04.306Z,34.85
2019-02-22T22:25:32.641Z,34.67
2019-02-22T22:28:00.851Z,34.33
2019-02-22T22:30:29.063Z,29.92
2019-02-22T22:32:57.281Z,35.00
2019-02-22T22:35:25.494Z,34.40
2019-02-22T22:37:53.703Z,35.35
2019-02-22T22:40:21.997Z,35.75
2019-02-22T22:42:50.202Z,37.63
2019-02-22T22:45:18.476Z,35.60
2019-02-22T22:47:46.711Z,38.33
2019-02-22T22:50:14.929Z,36.90
2019-02-22T22:52:43.147Z,33.80
2019-02-22T22:55:11.438Z,33.38
2019-02-22T22:57:39.656Z,33.63
2019-02-22T23:00:11.099Z,34.20
2019-02-22T23:02:40.375Z,34.45
2019-02-22T23:05:09.831Z,33.65
2019-02-22T23:07:38.047Z,36.50
2019-02-22T23:10:06.476Z,31.90
2019-02-22T23:12:34.854Z,35.40
2019-02-22T23:15:03.071Z,35.83
2019-02-22T23:17:31.343Z,34.53
2019-02-22T23:19:59.560Z,34.00
2019-02-22T23:22:27.778Z,35.10
2019-02-22T23:24:56.049Z,35.75
2019-02-22T23:27:24.284Z,36.00
2019-02-22T23:29:52.531Z,35.05
2019-02-22T23:32:20.747Z,33.95
2019-02-22T23:34:48.947Z,33.98
2019-02-22T23:37:17.169Z,34.75
2019-02-22T23:39:45.393Z,34.03
2019-02-22T23:42:15.225Z,37.25
2019-02-22T23:44:43.443Z,35.17
2019-02-22T23:47:11.664Z,32.20
2019-02-22T23:49:39.903Z,32.38
2019-02-22T23:52:08.130Z,33.63
2019-02-22T23:54:36.339Z,33.75
2019-02-22T23:57:04.554Z,35.70
2019-02-22T23:59:32.755Z,33.42
